createdAt,value
2019-05-14T00:00:46.025Z,9.54
2019-05-14T00:01:45.990Z,9.54
2019-05-14T00:02:45.951Z,9.54
2019-05-14T00:03:45.906Z,9.56
2019-05-14T00:04:45.864Z,9.56
2019-05-14T00:05:45.829Z,9.54
2019-05-14T00:06:45.793Z,9.55
2019-05-14T00:07:45.747Z,9.56
2019-05-14T00:08:45.711Z,9.46
2019-05-14T00:09:45.671Z,9.43
2019-05-14T00:10:45.625Z,9.47
2019-05-14T00:11:45.585Z,9.50
2019-05-14T00:12:45.545Z,9.47
2019-05-14T00:13:45.509Z,9.47
2019-05-14T00:14:45.470Z,9.47
2019-05-14T00:15:45.429Z,9.40
2019-05-14T00:16:45.388Z,9.43
2019-05-14T00:17:45.342Z,9.43
2019-05-14T00:18:45.305Z,9.51
2019-05-14T00:19:45.266Z,9.51
2019-05-14T00:20:45.232Z,9.41
2019-05-14T00:21:45.185Z,9.43
2019-05-14T00:22:45.147Z,9.40
2019-05-14T00:23:45.104Z,9.29
2019-05-14T00:24:45.062Z,9.34
2019-05-14T00:25:45.026Z,9.34
2019-05-14T00:26:44.982Z,9.26
2019-05-14T00:27:44.949Z,9.29
2019-05-14T00:28:44.907Z,9.26
2019-05-14T00:29:44.860Z,9.34
2019-05-14T00:30:44.822Z,9.25
2019-05-14T00:31:44.781Z,9.19
2019-05-14T00:32:44.742Z,9.18
2019-05-14T00:33:44.710Z,9.18
2019-05-14T00:34:44.663Z,9.22
2019-05-14T00:35:44.620Z,9.21
2019-05-14T00:36:44.581Z,9.13
2019-05-14T00:37:44.543Z,9.16
2019-05-14T00:38:44.501Z,9.19
2019-05-14T00:39:44.461Z,9.14
2019-05-14T00:40:44.426Z,9.08
2019-05-14T00:41:44.379Z,9.14
2019-05-14T00:42:44.341Z,9.14
2019-05-14T00:43:44.299Z,8.89
2019-05-14T00:44:54.463Z,8.89
2019-05-14T00:45:44.229Z,8.94
2019-05-14T00:46:44.186Z,9.00
2019-05-14T00:47:44.140Z,8.92
2019-05-14T00:48:44.101Z,8.84
2019-05-14T00:49:44.057Z,8.84
2019-05-14T00:50:44.016Z,8.89
2019-05-14T00:51:43.977Z,8.79
2019-05-14T00:52:46.294Z,8.89
2019-05-14T00:53:43.894Z,8.89
2019-05-14T00:54:43.856Z,8.91
2019-05-14T00:55:43.818Z,8.87
2019-05-14T00:56:43.772Z,8.84
2019-05-14T00:57:43.747Z,8.84
2019-05-14T00:58:43.695Z,8.74
2019-05-14T00:59:43.658Z,8.58
2019-05-14T01:00:43.618Z,8.70
2019-05-14T01:01:43.574Z,8.67
2019-05-14T01:02:43.531Z,8.71
2019-05-14T01:03:43.492Z,8.67
2019-05-14T01:04:43.448Z,8.69
2019-05-14T01:05:43.412Z,8.73
2019-05-14T01:06:43.371Z,8.69
2019-05-14T01:07:43.329Z,8.78
2019-05-14T01:08:43.287Z,8.81
2019-05-14T01:09:43.251Z,8.70
2019-05-14T01:10:43.209Z,8.67
2019-05-14T01:11:43.171Z,8.55
2019-05-14T01:12:43.131Z,8.53
2019-05-14T01:13:43.123Z,8.48
2019-05-14T01:14:43.046Z,8.58
2019-05-14T01:15:43.018Z,8.53
2019-05-14T01:16:42.965Z,8.52
2019-05-14T01:17:42.926Z,8.37
2019-05-14T01:18:42.886Z,8.42
2019-05-14T01:19:42.865Z,8.27
2019-05-14T01:20:42.809Z,8.33
2019-05-14T01:21:42.759Z,8.20
2019-05-14T01:22:42.723Z,8.12
2019-05-14T01:23:42.681Z,8.09
2019-05-14T01:24:42.644Z,7.97
2019-05-14T01:25:42.602Z,7.76
2019-05-14T01:26:42.561Z,7.83
2019-05-14T01:27:42.518Z,7.70
2019-05-14T01:28:42.481Z,7.77
2019-05-14T01:29:42.742Z,7.69
2019-05-14T01:30:42.396Z,7.73
2019-05-14T01:31:42.359Z,7.67
2019-05-14T01:32:42.319Z,7.72
2019-05-14T01:33:42.272Z,7.76
2019-05-14T01:34:42.316Z,7.67
2019-05-14T01:35:42.206Z,7.72
2019-05-14T01:36:42.151Z,7.76
2019-05-14T01:37:42.113Z,7.73
2019-05-14T01:38:42.079Z,7.67
2019-05-14T01:39:42.163Z,7.66
2019-05-14T01:40:42.130Z,7.67
2019-05-14T01:41:42.251Z,7.61
2019-05-14T01:42:41.917Z,7.67
2019-05-14T01:43:42.050Z,7.58
2019-05-14T01:44:41.832Z,7.63
2019-05-14T01:45:41.866Z,7.60
2019-05-14T01:46:42.032Z,7.53
2019-05-14T01:47:41.707Z,7.61
2019-05-14T01:48:41.838Z,7.58
2019-05-14T01:49:42.824Z,7.63
2019-05-14T01:50:41.590Z,7.61
2019-05-14T01:51:42.380Z,7.66
2019-05-14T01:52:41.748Z,7.51
2019-05-14T01:53:41.818Z,7.50
2019-05-14T01:54:42.683Z,7.66
2019-05-14T01:55:41.599Z,7.58
2019-05-14T01:56:42.332Z,7.45
2019-05-14T01:57:42.436Z,7.51
2019-05-14T01:58:41.709Z,7.40
2019-05-14T01:59:42.912Z,7.51
2019-05-14T02:00:41.608Z,7.48
2019-05-14T02:01:41.655Z,7.45
2019-05-14T02:02:41.837Z,7.54
2019-05-14T02:03:41.230Z,7.39
2019-05-14T02:04:42.801Z,7.35
2019-05-14T02:05:41.617Z,7.40
2019-05-14T02:06:41.284Z,7.39
2019-05-14T02:07:42.064Z,7.28
2019-05-14T02:08:41.367Z,7.15
2019-05-14T02:09:42.019Z,7.31
2019-05-14T02:10:41.971Z,7.31
2019-05-14T02:11:41.533Z,7.24
2019-05-14T02:12:42.425Z,7.33
2019-05-14T02:13:41.384Z,7.17
2019-05-14T02:14:42.383Z,7.25
2019-05-14T02:15:42.903Z,7.23
2019-05-14T02:16:42.253Z,7.32
2019-05-14T02:17:41.346Z,7.17
2019-05-14T02:18:41.582Z,7.25
2019-05-14T02:19:42.307Z,7.18
2019-05-14T02:20:41.485Z,7.35
2019-05-14T02:21:42.289Z,7.38
2019-05-14T02:22:41.711Z,7.35
2019-05-14T02:23:41.871Z,7.32
2019-05-14T02:24:41.830Z,7.33
2019-05-14T02:25:41.296Z,7.20
2019-05-14T02:26:42.211Z,7.21
2019-05-14T02:27:41.389Z,7.02
2019-05-14T02:28:41.866Z,7.21
2019-05-14T02:29:41.627Z,7.21
2019-05-14T02:30:51.457Z,7.18
2019-05-14T02:31:39.899Z,7.23
2019-05-14T02:32:40.701Z,7.24
2019-05-14T02:33:39.907Z,7.32
2019-05-14T02:34:40.252Z,7.38
2019-05-14T02:35:39.949Z,7.50
2019-05-14T02:36:40.163Z,7.31
2019-05-14T02:37:40.430Z,7.35
2019-05-14T02:38:39.608Z,7.33
2019-05-14T02:39:41.097Z,7.32
2019-05-14T02:40:40.385Z,7.24
2019-05-14T02:41:39.579Z,7.31
2019-05-14T02:42:40.225Z,7.40
2019-05-14T02:43:40.980Z,7.50
2019-05-14T02:44:40.735Z,7.47
2019-05-14T02:45:51.059Z,7.48
2019-05-14T02:46:40.317Z,7.53
2019-05-14T02:47:39.881Z,7.57
2019-05-14T02:48:40.148Z,7.45
2019-05-14T02:49:39.925Z,7.43
2019-05-14T02:50:39.654Z,7.24
2019-05-14T02:51:39.328Z,7.36
2019-05-14T02:52:40.298Z,7.40
2019-05-14T02:53:39.236Z,7.33
2019-05-14T02:54:40.494Z,7.48
2019-05-14T02:55:39.116Z,7.48
2019-05-14T02:56:40.167Z,7.40
2019-05-14T02:57:39.446Z,7.36
2019-05-14T02:58:40.214Z,7.39
2019-05-14T02:59:39.437Z,7.35
2019-05-14T03:00:40.854Z,7.39
2019-05-14T03:01:40.563Z,7.47
2019-05-14T03:02:40.357Z,7.48
2019-05-14T03:03:40.116Z,7.31
2019-05-14T03:04:39.497Z,7.32
2019-05-14T03:05:40.138Z,7.33
2019-05-14T03:06:39.449Z,7.25
2019-05-14T03:07:39.253Z,7.31
2019-05-14T03:08:39.048Z,7.31
2019-05-14T03:09:40.336Z,7.24
2019-05-14T03:10:40.316Z,7.31
2019-05-14T03:11:40.367Z,7.29
2019-05-14T03:12:39.563Z,7.29
2019-05-14T03:13:40.003Z,7.42
2019-05-14T03:14:39.647Z,7.35
2019-05-14T03:15:39.082Z,7.42
2019-05-14T03:16:40.218Z,7.36
2019-05-14T03:17:40.394Z,7.47
2019-05-14T03:18:39.708Z,7.39
2019-05-14T03:19:40.856Z,7.38
2019-05-14T03:20:38.979Z,7.39
2019-05-14T03:21:39.546Z,7.39
2019-05-14T03:37:12.081Z,6.39
2019-05-14T03:38:09.220Z,6.38
2019-05-14T03:39:10.125Z,6.36
2019-05-14T03:40:09.307Z,6.33
2019-05-14T03:41:09.127Z,6.42
2019-05-14T03:42:09.190Z,6.56
2019-05-14T03:43:08.907Z,6.56
2019-05-14T03:44:09.605Z,6.69
2019-05-14T03:45:08.457Z,6.70
2019-05-14T03:46:09.470Z,6.70
2019-05-14T03:47:09.943Z,6.57
2019-05-14T03:48:09.638Z,6.59
2019-05-14T03:49:09.075Z,6.46
2019-05-14T03:50:06.033Z,6.51
2019-05-14T03:51:08.864Z,6.46
2019-05-14T03:52:09.314Z,6.41
2019-05-14T03:53:05.904Z,6.39
2019-05-14T03:54:07.688Z,6.45
2019-05-14T03:55:09.117Z,6.63
2019-05-14T03:56:05.783Z,6.72
2019-05-14T03:57:05.737Z,6.75
2019-05-14T03:58:05.692Z,6.67
2019-05-14T03:59:05.825Z,6.77
2019-05-14T04:00:05.616Z,6.70
2019-05-14T04:01:05.566Z,6.69
2019-05-14T04:02:05.528Z,6.84
2019-05-14T04:03:05.485Z,6.85
2019-05-14T04:04:05.441Z,6.87
2019-05-14T04:05:05.400Z,6.69
2019-05-14T04:06:05.360Z,6.77
2019-05-14T04:07:05.320Z,6.67
2019-05-14T04:08:05.275Z,6.69
2019-05-14T04:09:05.234Z,6.69
2019-05-14T04:10:05.192Z,6.62
2019-05-14T04:11:05.149Z,6.70
2019-05-14T04:12:05.110Z,6.77
2019-05-14T04:13:05.068Z,6.78
2019-05-14T04:14:05.029Z,6.70
2019-05-14T04:15:04.987Z,6.75
2019-05-14T04:16:04.974Z,6.77
2019-05-14T04:17:09.570Z,6.70
2019-05-14T04:18:04.862Z,6.81
2019-05-14T04:19:04.818Z,6.89
2019-05-14T04:20:04.774Z,7.00
2019-05-14T04:21:04.736Z,7.02
2019-05-14T04:22:04.688Z,7.06
2019-05-14T04:23:04.646Z,7.10
2019-05-14T04:24:04.607Z,7.02
2019-05-14T04:25:04.567Z,7.14
2019-05-14T04:26:04.534Z,7.20
2019-05-14T04:27:11.497Z,7.21
2019-05-14T04:28:04.444Z,7.20
2019-05-14T04:29:04.398Z,7.32
2019-05-14T04:30:04.357Z,7.24
2019-05-14T04:31:04.323Z,7.23
2019-05-14T04:32:04.320Z,7.13
2019-05-14T04:33:04.254Z,7.24
2019-05-14T04:34:04.190Z,7.13
2019-05-14T04:35:04.149Z,7.05
2019-05-14T04:36:04.119Z,7.21
2019-05-14T04:37:04.068Z,7.35
2019-05-14T04:38:04.034Z,7.43
2019-05-14T04:39:03.988Z,7.36
2019-05-14T04:40:03.945Z,7.38
2019-05-14T04:41:03.900Z,7.21
2019-05-14T04:42:03.861Z,7.23
2019-05-14T04:43:03.825Z,7.28
2019-05-14T04:44:03.783Z,7.25
2019-05-14T04:45:05.681Z,7.28
2019-05-14T04:46:03.699Z,7.20
2019-05-14T04:47:21.710Z,7.24
2019-05-14T04:48:22.540Z,7.11
2019-05-14T04:49:03.576Z,7.21
2019-05-14T04:50:03.536Z,7.18
2019-05-14T04:51:03.490Z,7.21
2019-05-14T04:52:03.462Z,7.25
2019-05-14T04:53:03.405Z,7.32
2019-05-14T04:54:03.363Z,7.50
2019-05-14T04:55:03.330Z,7.53
2019-05-14T04:56:03.289Z,7.60
2019-05-14T04:57:03.244Z,7.76
2019-05-14T04:58:03.203Z,7.83
2019-05-14T04:59:03.161Z,7.82
2019-05-14T05:00:03.120Z,7.95
2019-05-14T05:01:03.094Z,7.97
2019-05-14T05:02:03.034Z,7.85
2019-05-14T05:03:02.997Z,7.97
2019-05-14T05:04:02.962Z,8.08
2019-05-14T05:05:02.913Z,8.19
2019-05-14T05:06:02.869Z,8.00
2019-05-14T05:07:02.827Z,8.06
2019-05-14T05:08:02.790Z,8.05
2019-05-14T05:09:02.748Z,8.13
2019-05-14T05:10:02.710Z,8.05
2019-05-14T05:11:02.669Z,8.10
2019-05-14T05:12:02.625Z,8.06
2019-05-14T05:13:02.584Z,7.80
2019-05-14T05:14:02.547Z,7.80
2019-05-14T05:15:02.499Z,7.93
2019-05-14T05:16:02.463Z,7.97
2019-05-14T05:17:02.423Z,8.03
2019-05-14T05:18:02.386Z,8.05
2019-05-14T05:19:02.336Z,8.06
2019-05-14T05:20:02.297Z,8.08
2019-05-14T05:21:02.258Z,7.97
2019-05-14T05:22:02.221Z,8.09
2019-05-14T05:23:02.177Z,7.83
2019-05-14T05:24:02.136Z,7.93
2019-05-14T05:25:02.093Z,8.08
2019-05-14T05:26:02.050Z,8.05
2019-05-14T05:27:02.009Z,8.20
2019-05-14T05:28:01.971Z,8.03
2019-05-14T05:29:06.565Z,8.05
2019-05-14T05:30:01.893Z,8.19
2019-05-14T05:31:01.852Z,8.10
2019-05-14T05:32:01.810Z,8.20
2019-05-14T05:33:01.769Z,8.05
2019-05-14T05:34:01.726Z,8.10
2019-05-14T05:35:01.692Z,8.23
2019-05-14T05:36:01.647Z,8.24
2019-05-14T05:37:01.606Z,8.31
2019-05-14T05:38:01.562Z,8.36
2019-05-14T05:39:01.530Z,8.48
2019-05-14T05:40:01.484Z,8.63
2019-05-14T05:41:01.449Z,8.53
2019-05-14T05:42:01.407Z,8.49
2019-05-14T05:43:01.368Z,8.49
2019-05-14T05:44:01.322Z,8.55
2019-05-14T05:45:01.281Z,8.52
2019-05-14T05:46:01.238Z,8.52
2019-05-14T05:47:01.200Z,8.23
2019-05-14T05:48:01.765Z,8.28
2019-05-14T05:49:01.120Z,8.37
2019-05-14T05:50:01.082Z,8.38
2019-05-14T05:51:01.036Z,8.53
2019-05-14T05:52:00.997Z,8.67
2019-05-14T05:53:00.959Z,8.49
2019-05-14T05:54:00.919Z,8.48
2019-05-14T05:55:00.879Z,8.46
2019-05-14T05:56:00.837Z,8.55
2019-05-14T05:57:00.795Z,8.53
2019-05-14T05:58:00.753Z,8.42
2019-05-14T05:59:00.791Z,8.37
2019-05-14T06:00:00.674Z,8.45
2019-05-14T06:01:00.635Z,8.51
2019-05-14T06:02:00.597Z,8.61
2019-05-14T06:03:00.556Z,8.69
2019-05-14T06:04:00.517Z,8.64
2019-05-14T06:05:00.474Z,8.71
2019-05-14T06:06:00.432Z,8.74
2019-05-14T09:50:34.424Z,12.57
2019-05-14T09:51:34.346Z,12.62
2019-05-14T09:52:34.313Z,12.68
2019-05-14T09:53:34.258Z,12.46
2019-05-14T09:54:34.217Z,12.42
2019-05-14T09:55:34.177Z,12.40
2019-05-14T09:56:34.137Z,12.39
2019-05-14T09:57:34.101Z,12.43
2019-05-14T09:58:34.054Z,12.39
2019-05-14T09:59:34.025Z,12.43
2019-05-14T10:00:33.968Z,12.54
2019-05-14T10:01:33.936Z,12.45
2019-05-14T10:02:33.895Z,12.53
2019-05-14T10:03:33.855Z,12.68
2019-05-14T10:04:33.814Z,12.47
2019-05-14T10:05:33.772Z,12.49
2019-05-14T10:06:33.732Z,12.54
2019-05-14T10:07:33.693Z,12.58
2019-05-14T10:08:33.652Z,12.75
2019-05-14T10:09:33.618Z,12.83
2019-05-14T10:10:33.578Z,13.01
2019-05-14T10:11:33.536Z,13.03
2019-05-14T10:12:37.908Z,12.82
2019-05-14T10:13:33.466Z,12.67
2019-05-14T10:14:33.422Z,12.67
2019-05-14T10:15:33.383Z,12.82
2019-05-14T10:16:33.361Z,12.83
2019-05-14T10:17:33.302Z,12.95
2019-05-14T10:18:33.269Z,12.95
2019-05-14T10:19:33.225Z,12.97
2019-05-14T10:20:41.197Z,12.97
2019-05-14T10:21:33.153Z,13.08
2019-05-14T10:22:33.115Z,13.19
2019-05-14T10:23:33.073Z,13.33
2019-05-14T10:24:33.038Z,13.20
2019-05-14T10:25:33.000Z,13.19
2019-05-14T10:26:32.955Z,13.15
2019-05-14T10:27:32.919Z,13.11
2019-05-14T10:28:32.893Z,12.98
2019-05-14T10:29:32.842Z,13.16
2019-05-14T10:30:32.802Z,13.33
2019-05-14T10:31:32.794Z,13.49
2019-05-14T10:32:32.763Z,13.39
2019-05-14T10:33:32.692Z,13.62
2019-05-14T10:34:32.661Z,13.56
2019-05-14T10:35:32.615Z,13.67
2019-05-14T10:36:32.579Z,13.70
2019-05-14T10:37:32.536Z,13.59
2019-05-14T10:38:32.498Z,13.50
2019-05-14T10:39:32.460Z,13.37
2019-05-14T10:40:32.420Z,13.13
2019-05-14T10:41:32.388Z,13.23
2019-05-14T10:42:32.351Z,13.19
2019-05-14T10:43:32.308Z,13.42
2019-05-14T10:44:32.271Z,13.38
2019-05-14T10:45:32.236Z,13.49
2019-05-14T10:46:32.195Z,13.60
2019-05-14T10:47:32.166Z,13.92
2019-05-14T10:48:32.122Z,13.87
2019-05-14T10:49:32.081Z,14.00
2019-05-14T10:50:32.042Z,14.05
2019-05-14T10:51:32.006Z,13.87
2019-05-14T10:52:31.966Z,13.81
2019-05-14T10:53:31.935Z,13.81
2019-05-14T10:54:31.894Z,13.67
2019-05-14T10:55:31.857Z,13.52
2019-05-14T10:56:31.822Z,13.65
2019-05-14T10:57:31.781Z,13.56
2019-05-14T10:58:31.749Z,13.68
2019-05-14T10:59:31.706Z,13.72
2019-05-14T11:00:31.672Z,13.70
2019-05-14T11:01:31.633Z,13.75
2019-05-14T11:02:31.597Z,13.49
2019-05-14T11:03:31.559Z,13.56
2019-05-14T11:04:34.343Z,13.62
2019-05-14T11:05:31.484Z,13.53
2019-05-14T11:06:31.446Z,13.56
2019-05-14T11:07:31.406Z,13.65
2019-05-14T11:08:31.371Z,13.85
2019-05-14T11:09:31.328Z,13.89
2019-05-14T11:10:31.292Z,13.93
2019-05-14T11:11:31.256Z,14.07
2019-05-14T11:12:31.220Z,13.96
2019-05-14T11:13:31.184Z,13.92
2019-05-14T11:14:31.991Z,13.89
2019-05-14T11:15:31.123Z,13.71
2019-05-14T11:16:31.068Z,13.75
2019-05-14T11:17:31.042Z,13.83
2019-05-14T11:18:30.996Z,14.00
2019-05-14T11:19:30.960Z,14.15
2019-05-14T11:20:31.260Z,14.20
2019-05-14T11:21:30.884Z,14.20
2019-05-14T11:22:30.844Z,14.25
2019-05-14T11:23:30.819Z,14.18
2019-05-14T11:24:30.768Z,14.30
2019-05-14T11:25:30.740Z,14.45
2019-05-14T11:26:30.699Z,14.51
2019-05-14T11:27:30.662Z,14.37
2019-05-14T11:28:30.625Z,14.48
2019-05-14T11:29:30.584Z,14.51
2019-05-14T11:30:30.550Z,14.50
2019-05-14T11:31:34.041Z,14.68
2019-05-14T11:32:30.478Z,14.84
2019-05-14T11:33:30.435Z,15.11
2019-05-14T11:34:30.397Z,15.15
2019-05-14T11:35:30.363Z,15.10
2019-05-14T11:36:30.326Z,15.18
2019-05-14T11:37:30.300Z,15.40
2019-05-14T11:38:37.288Z,15.49
2019-05-14T11:39:30.219Z,15.36
2019-05-14T11:40:30.182Z,15.35
2019-05-14T11:41:30.144Z,15.40
2019-05-14T11:42:31.421Z,15.31
2019-05-14T11:43:30.071Z,15.11
2019-05-14T11:44:30.032Z,14.96
2019-05-14T11:45:30.005Z,14.86
2019-05-14T11:46:44.379Z,15.03
2019-05-14T11:47:29.923Z,14.92
2019-05-14T11:48:29.885Z,14.86
2019-05-14T11:49:29.853Z,14.69
2019-05-14T11:50:29.817Z,14.51
2019-05-14T11:51:54.641Z,14.33
2019-05-14T11:52:29.745Z,14.30
2019-05-14T11:53:29.704Z,14.36
2019-05-14T11:54:29.665Z,14.40
2019-05-14T11:55:29.643Z,14.60
2019-05-14T11:56:29.592Z,14.63
2019-05-14T11:57:29.559Z,14.89
2019-05-14T11:58:29.585Z,14.92
2019-05-14T11:59:29.484Z,14.81
2019-05-14T12:00:29.645Z,14.65
2019-05-14T12:01:29.773Z,14.69
2019-05-14T12:02:29.372Z,14.63
2019-05-14T12:03:29.336Z,14.68
2019-05-14T12:04:29.302Z,14.58
2019-05-14T12:05:30.456Z,14.65
2019-05-14T12:06:30.414Z,14.82
2019-05-14T12:07:29.216Z,14.88
2019-05-14T12:08:29.172Z,14.92
2019-05-14T12:09:29.143Z,14.79
2019-05-14T12:10:29.334Z,14.59
2019-05-14T12:11:29.136Z,14.53
2019-05-14T12:12:29.088Z,14.72
2019-05-14T12:13:32.677Z,14.92
2019-05-14T12:14:29.064Z,14.73
2019-05-14T12:15:28.897Z,14.89
2019-05-14T12:16:29.262Z,15.25
2019-05-14T12:17:29.477Z,15.15
2019-05-14T12:18:29.195Z,15.14
2019-05-14T12:19:29.538Z,15.02
2019-05-14T12:20:29.655Z,15.02
2019-05-14T12:21:28.967Z,15.02
2019-05-14T12:22:28.807Z,15.00
2019-05-14T12:23:29.830Z,14.78
2019-05-14T12:24:29.151Z,14.82
2019-05-14T12:25:29.416Z,14.69
2019-05-14T12:26:28.675Z,14.85
2019-05-14T12:27:28.458Z,14.91
2019-05-14T12:28:29.112Z,14.91
2019-05-14T12:29:29.137Z,14.82
2019-05-14T12:30:28.781Z,14.91
2019-05-14T12:31:28.958Z,14.88
2019-05-14T12:32:29.504Z,14.84
2019-05-14T12:33:30.359Z,14.82
2019-05-14T12:34:29.526Z,14.88
2019-05-14T12:35:29.291Z,15.07
2019-05-14T12:36:29.255Z,15.25
2019-05-14T12:37:28.894Z,15.17
2019-05-14T12:38:29.698Z,15.24
2019-05-14T12:39:29.386Z,15.07
2019-05-14T12:40:28.861Z,15.18
2019-05-14T12:41:29.053Z,15.15
2019-05-14T12:42:29.558Z,15.02
2019-05-14T12:43:28.553Z,15.07
2019-05-14T12:44:29.133Z,15.10
2019-05-14T12:45:29.900Z,15.21
2019-05-14T12:46:29.469Z,15.42
2019-05-14T12:47:29.010Z,15.67
2019-05-14T12:48:29.877Z,15.92
2019-05-14T12:49:27.656Z,15.77
2019-05-14T12:50:27.646Z,15.46
2019-05-14T12:51:27.592Z,15.31
2019-05-14T12:52:29.538Z,15.46
2019-05-14T12:53:28.848Z,15.40
2019-05-14T12:54:29.713Z,15.24
2019-05-14T12:55:28.627Z,15.29
2019-05-14T12:56:29.409Z,15.21
2019-05-14T12:57:29.977Z,15.07
2019-05-14T12:58:28.545Z,15.15
2019-05-14T12:59:28.507Z,15.14
2019-05-14T13:00:27.257Z,15.24
2019-05-14T13:01:27.242Z,15.27
2019-05-14T13:02:29.436Z,15.39
2019-05-14T13:03:28.490Z,15.49
2019-05-14T13:04:28.539Z,15.46
2019-05-14T13:05:29.325Z,15.44
2019-05-14T13:06:29.374Z,15.36
2019-05-14T13:07:27.033Z,15.29
2019-05-14T13:08:26.968Z,15.40
2019-05-14T13:09:26.934Z,15.42
2019-05-14T13:10:29.238Z,15.68
2019-05-14T13:11:26.981Z,15.67
2019-05-14T13:12:26.814Z,15.68
2019-05-14T13:13:28.879Z,15.64
2019-05-14T13:14:28.319Z,15.54
2019-05-14T13:15:28.695Z,15.55
2019-05-14T13:16:28.502Z,15.54
2019-05-14T13:17:28.138Z,15.59
2019-05-14T13:18:28.887Z,15.46
2019-05-14T13:19:28.370Z,15.44
2019-05-14T13:20:28.927Z,15.52
2019-05-14T13:21:28.761Z,15.58
2019-05-14T13:22:41.476Z,15.70
2019-05-14T13:23:29.001Z,15.70
2019-05-14T13:24:28.630Z,15.70
2019-05-14T13:25:30.067Z,15.80
2019-05-14T13:26:26.315Z,15.95
2019-05-14T13:27:28.622Z,15.92
2019-05-14T13:28:28.947Z,15.91
2019-05-14T13:29:28.768Z,15.82
2019-05-14T13:30:26.173Z,15.97
2019-05-14T13:31:29.008Z,16.01
2019-05-14T13:32:28.719Z,16.04
2019-05-14T13:33:28.317Z,16.02
2019-05-14T13:34:28.718Z,16.08
2019-05-14T13:35:26.362Z,15.91
2019-05-14T13:36:28.564Z,15.88
2019-05-14T13:37:28.657Z,15.80
2019-05-14T13:38:26.156Z,15.75
2019-05-14T13:39:28.168Z,15.61
2019-05-14T13:40:28.257Z,15.59
2019-05-14T13:41:28.290Z,15.64
2019-05-14T13:42:26.418Z,15.70
2019-05-14T13:43:25.709Z,15.86
2019-05-14T13:44:25.696Z,15.80
2019-05-14T13:45:25.646Z,15.83
2019-05-14T13:46:28.304Z,15.88
2019-05-14T13:47:28.821Z,15.91
2019-05-14T13:48:25.559Z,15.98
2019-05-14T13:49:25.496Z,16.09
2019-05-14T13:50:25.463Z,16.09
2019-05-14T13:51:29.390Z,16.20
2019-05-14T13:52:25.508Z,16.16
2019-05-14T13:53:25.403Z,16.02
2019-05-14T13:54:25.356Z,15.98
2019-05-14T13:55:28.056Z,16.02
2019-05-14T13:56:25.270Z,16.01
2019-05-14T13:57:25.205Z,16.09
2019-05-14T13:58:25.184Z,15.97
2019-05-14T13:59:25.146Z,15.98
2019-05-14T14:00:25.096Z,16.01
2019-05-14T14:01:25.059Z,15.88
2019-05-14T14:02:27.948Z,15.94
2019-05-14T14:03:24.990Z,15.86
2019-05-14T14:04:24.970Z,16.13
2019-05-14T14:05:24.911Z,16.49
2019-05-14T14:06:24.904Z,16.31
2019-05-14T14:07:24.841Z,16.39
2019-05-14T14:08:24.806Z,16.49
2019-05-14T14:09:24.776Z,16.42
2019-05-14T14:10:24.752Z,16.64
2019-05-14T14:11:24.696Z,16.72
2019-05-14T14:12:25.281Z,16.66
2019-05-14T14:13:25.281Z,16.72
2019-05-14T14:14:24.595Z,16.51
2019-05-14T14:15:24.560Z,16.49
2019-05-14T14:16:24.655Z,16.53
2019-05-14T14:17:24.485Z,16.56
2019-05-14T14:18:26.337Z,16.68
2019-05-14T14:19:24.482Z,16.76
2019-05-14T14:20:24.667Z,16.65
2019-05-14T14:21:24.344Z,16.53
2019-05-14T14:22:24.315Z,16.28
2019-05-14T14:23:28.060Z,16.31
2019-05-14T14:24:24.273Z,16.31
2019-05-14T14:25:24.297Z,16.17
2019-05-14T14:26:24.167Z,16.16
2019-05-14T14:27:24.171Z,16.10
2019-05-14T14:28:24.097Z,16.35
2019-05-14T14:29:24.059Z,16.26
2019-05-14T14:30:24.023Z,16.23
2019-05-14T14:31:23.984Z,16.13
2019-05-14T14:32:23.954Z,16.15
2019-05-14T14:33:23.920Z,16.23
2019-05-14T14:34:23.891Z,16.20
2019-05-14T14:35:24.751Z,16.15
2019-05-14T14:36:24.224Z,16.38
2019-05-14T14:37:23.795Z,16.42
2019-05-14T14:38:23.739Z,16.41
2019-05-14T14:39:23.703Z,16.47
2019-05-14T14:40:23.729Z,16.41
2019-05-14T14:41:23.860Z,16.47
2019-05-14T14:42:23.610Z,16.36
2019-05-14T14:43:23.593Z,16.29
2019-05-14T14:44:23.527Z,16.35
2019-05-14T14:45:23.579Z,16.26
2019-05-14T14:46:23.500Z,16.23
2019-05-14T14:47:23.425Z,16.23
2019-05-14T14:48:23.509Z,16.47
2019-05-14T14:49:23.373Z,16.31
2019-05-14T14:50:23.311Z,16.32
2019-05-14T14:51:23.276Z,16.35
2019-05-14T14:52:23.249Z,16.33
2019-05-14T14:53:41.731Z,16.32
2019-05-14T14:54:23.198Z,16.32
2019-05-14T14:55:23.145Z,16.42
2019-05-14T14:56:23.100Z,16.47
2019-05-14T14:57:23.068Z,16.42
2019-05-14T14:58:23.608Z,16.42
2019-05-14T14:59:23.001Z,16.47
2019-05-14T15:00:22.961Z,16.26
2019-05-14T15:01:22.937Z,16.13
2019-05-14T15:02:22.889Z,16.20
2019-05-14T15:03:22.909Z,16.21
2019-05-14T15:04:22.963Z,16.26
2019-05-14T15:05:22.785Z,16.08
2019-05-14T15:06:22.920Z,15.86
2019-05-14T15:07:22.758Z,15.86
2019-05-14T15:08:22.680Z,15.95
2019-05-14T15:09:22.642Z,15.75
2019-05-14T15:10:23.578Z,15.72
2019-05-14T15:11:23.078Z,15.73
2019-05-14T15:12:22.536Z,15.95
2019-05-14T15:13:22.499Z,15.91
2019-05-14T15:14:22.469Z,16.01
2019-05-14T15:15:22.421Z,16.12
2019-05-14T15:16:22.395Z,16.10
2019-05-14T15:17:22.363Z,16.16
2019-05-14T15:18:22.435Z,16.09
2019-05-14T15:19:22.300Z,16.04
2019-05-14T15:20:22.274Z,16.10
2019-05-14T15:21:22.216Z,16.24
2019-05-14T15:22:22.174Z,16.47
2019-05-14T15:34:52.601Z,16.56
2019-05-14T15:35:52.549Z,16.53
2019-05-14T15:36:52.282Z,16.58
2019-05-14T15:37:52.269Z,16.72
2019-05-14T15:38:52.193Z,16.74
2019-05-14T15:39:52.154Z,16.61
2019-05-14T15:40:52.119Z,16.61
2019-05-14T15:41:52.081Z,16.57
2019-05-14T15:42:52.046Z,16.51
2019-05-14T15:43:52.009Z,16.43
2019-05-14T15:44:55.574Z,16.47
2019-05-14T15:45:51.931Z,16.50
2019-05-14T15:46:51.891Z,16.50
2019-05-14T15:47:51.854Z,16.42
2019-05-14T15:48:51.849Z,16.42
2019-05-14T15:49:51.787Z,16.50
2019-05-14T15:50:51.753Z,16.46
2019-05-14T15:51:51.710Z,16.42
2019-05-14T15:52:51.677Z,16.51
2019-05-14T15:54:11.027Z,16.41
2019-05-14T15:54:51.628Z,16.33
2019-05-14T15:55:51.571Z,16.26
2019-05-14T15:56:51.543Z,16.31
2019-05-14T15:57:51.522Z,16.36
2019-05-14T15:58:51.456Z,16.28
2019-05-14T15:59:51.419Z,16.32
2019-05-14T16:00:51.578Z,16.39
2019-05-14T16:01:51.360Z,16.39
2019-05-14T16:02:51.317Z,16.50
2019-05-14T16:03:51.283Z,16.51
2019-05-14T16:04:51.251Z,16.51
2019-05-14T16:05:51.205Z,16.50
2019-05-14T16:06:51.173Z,16.65
2019-05-14T16:07:51.165Z,16.61
2019-05-14T16:08:51.157Z,16.49
2019-05-14T16:09:51.086Z,16.54
2019-05-14T16:10:51.042Z,16.61
2019-05-14T16:11:51.004Z,16.46
2019-05-14T16:12:50.973Z,16.39
2019-05-14T16:13:51.075Z,16.29
2019-05-14T16:14:51.020Z,16.23
2019-05-14T16:15:50.856Z,16.23
2019-05-14T16:16:50.834Z,16.24
2019-05-14T16:18:05.837Z,16.15
2019-05-14T16:18:50.766Z,16.01
2019-05-14T16:19:50.735Z,16.05
2019-05-14T16:20:53.572Z,16.16
2019-05-14T16:21:50.658Z,16.24
2019-05-14T16:22:50.615Z,16.46
2019-05-14T16:23:50.561Z,16.43
2019-05-14T16:24:56.329Z,16.42
2019-05-14T16:25:50.559Z,16.33
2019-05-14T16:26:50.483Z,16.31
2019-05-14T16:27:50.675Z,16.26
2019-05-14T16:28:50.413Z,16.13
2019-05-14T16:29:50.350Z,16.08
2019-05-14T16:30:50.311Z,16.08
2019-05-14T16:31:50.300Z,16.02
2019-05-14T16:32:59.745Z,16.04
2019-05-14T16:33:50.206Z,15.94
2019-05-14T16:34:50.238Z,15.97
2019-05-14T16:35:50.137Z,15.95
2019-05-14T16:36:50.106Z,15.86
2019-05-14T16:37:50.084Z,15.83
2019-05-14T16:38:50.032Z,15.92
2019-05-14T16:39:51.079Z,15.94
2019-05-14T16:40:49.958Z,15.98
2019-05-14T16:41:49.917Z,16.00
2019-05-14T16:42:49.882Z,16.04
2019-05-14T16:43:49.846Z,16.04
2019-05-14T16:44:49.810Z,15.94
2019-05-14T16:45:49.777Z,15.91
2019-05-14T16:46:49.772Z,15.91
2019-05-14T16:47:49.719Z,15.94
2019-05-14T16:48:49.871Z,15.90
2019-05-14T16:49:49.822Z,15.94
2019-05-14T16:50:50.604Z,15.83
2019-05-14T16:51:50.074Z,15.90
2019-05-14T16:52:49.743Z,15.88
2019-05-14T16:54:49.941Z,15.92
2019-05-14T16:55:49.435Z,15.91
2019-05-14T16:56:49.445Z,15.92
2019-05-14T16:57:52.527Z,15.88
2019-05-14T16:58:49.325Z,16.02
2019-05-14T16:59:49.767Z,15.98
2019-05-14T17:00:49.241Z,16.04
2019-05-14T17:01:49.430Z,16.02
2019-05-14T17:02:49.192Z,16.00
2019-05-14T17:03:54.692Z,15.86
2019-05-14T17:04:49.093Z,15.83
2019-05-14T17:05:53.984Z,15.88
2019-05-14T17:06:51.051Z,15.68
2019-05-14T17:07:49.440Z,15.75
2019-05-14T17:08:49.241Z,15.77
2019-05-14T17:09:49.360Z,15.72
2019-05-14T17:10:49.475Z,15.70
2019-05-14T17:11:48.847Z,15.67
2019-05-14T17:12:56.553Z,15.73
2019-05-14T17:13:49.085Z,15.79
2019-05-14T17:14:48.731Z,15.83